sensor_id;sensor_type;location;lat;lon;timestamp;pressure;altitude;pressure_sealevel;temperature;humidity
53246;BME280;39569;51.090;-1.786;2023-04-28T00:00:30;100141.22;;;21.77;53.68
53246;BME280;39569;51.090;-1.786;2023-04-28T00:02:58;100144.84;;;21.82;53.67
53246;BME280;39569;51.090;-1.786;2023-04-28T00:05:25;100143.28;;;21.28;55.24
53246;BME280;39569;51.090;-1.786;2023-04-28T00:07:53;100138.78;;;21.12;56.13
53246;BME280;39569;51.090;-1.786;2023-04-28T00:10:20;100142.97;;;21.24;55.87
53246;BME280;39569;51.090;-1.786;2023-04-28T00:12:47;100142.59;;;20.19;57.90
53246;BME280;39569;51.090;-1.786;2023-04-28T00:15:13;100132.72;;;20.78;56.62
53246;BME280;39569;51.090;-1.786;2023-04-28T00:17:40;100137.53;;;21.24;55.16
53246;BME280;39569;51.090;-1.786;2023-04-28T00:20:08;100135.38;;;20.73;56.70
53246;BME280;39569;51.090;-1.786;2023-04-28T00:22:35;100134.88;;;21.29;55.34
53246;BME280;39569;51.090;-1.786;2023-04-28T00:25:04;100131.94;;;21.68;54.15
53246;BME280;39569;51.090;-1.786;2023-04-28T00:27:32;100127.38;;;20.62;56.45
53246;BME280;39569;51.090;-1.786;2023-04-28T00:29:58;100124.78;;;20.50;57.08
53246;BME280;39569;51.090;-1.786;2023-04-28T00:32:25;100135.06;;;20.48;56.34
53246;BME280;39569;51.090;-1.786;2023-04-28T00:34:52;100134.94;;;20.60;56.67
53246;BME280;39569;51.090;-1.786;2023-04-28T00:37:19;100130.09;;;19.64;58.75
53246;BME280;39569;51.090;-1.786;2023-04-28T00:39:45;100121.69;;;20.20;57.34
53246;BME280;39569;51.090;-1.786;2023-04-28T00:42:14;100120.09;;;20.67;56.81
53246;BME280;39569;51.090;-1.786;2023-04-28T00:44:41;100112.03;;;20.99;55.41
53246;BME280;39569;51.090;-1.786;2023-04-28T00:47:08;100116.13;;;21.01;55.16
53246;BME280;39569;51.090;-1.786;2023-04-28T00:49:35;100117.25;;;20.30;56.30
53246;BME280;39569;51.090;-1.786;2023-04-28T00:52:04;100112.03;;;20.99;55.18
53246;BME280;39569;51.090;-1.786;2023-04-28T00:54:31;100113.47;;;21.70;53.40
53246;BME280;39569;51.090;-1.786;2023-04-28T00:56:58;100109.25;;;21.20;53.83
53246;BME280;39569;51.090;-1.786;2023-04-28T00:59:27;100116.53;;;21.46;53.80
53246;BME280;39569;51.090;-1.786;2023-04-28T01:01:54;100107.53;;;20.34;56.47
53246;BME280;39569;51.090;-1.786;2023-04-28T01:04:22;100111.03;;;20.83;55.31
53246;BME280;39569;51.090;-1.786;2023-04-28T01:06:50;100114.66;;;19.64;58.01
53246;BME280;39569;51.090;-1.786;2023-04-28T01:09:18;100112.59;;;20.74;54.86
53246;BME280;39569;51.090;-1.786;2023-04-28T01:11:44;100120.41;;;20.06;56.79
53246;BME280;39569;51.090;-1.786;2023-04-28T01:14:11;100123.06;;;21.14;54.52
53246;BME280;39569;51.090;-1.786;2023-04-28T01:16:39;100125.06;;;20.48;55.79
53246;BME280;39569;51.090;-1.786;2023-04-28T01:19:07;100122.19;;;20.17;56.92
53246;BME280;39569;51.090;-1.786;2023-04-28T01:21:37;100126.53;;;19.80;58.05
53246;BME280;39569;51.090;-1.786;2023-04-28T01:24:06;100120.25;;;21.04;55.02
53246;BME280;39569;51.090;-1.786;2023-04-28T01:26:33;100127.53;;;20.77;55.45
53246;BME280;39569;51.090;-1.786;2023-04-28T01:29:00;100130.50;;;20.27;57.02
53246;BME280;39569;51.090;-1.786;2023-04-28T01:31:27;100131.03;;;20.50;55.80
53246;BME280;39569;51.090;-1.786;2023-04-28T01:33:55;100130.06;;;19.80;57.95
53246;BME280;39569;51.090;-1.786;2023-04-28T01:36:21;100125.56;;;21.20;54.29
53246;BME280;39569;51.090;-1.786;2023-04-28T01:38:49;100131.22;;;21.14;54.08
53246;BME280;39569;51.090;-1.786;2023-04-28T01:41:17;100133.50;;;21.27;53.88
53246;BME280;39569;51.090;-1.786;2023-04-28T01:43:44;100134.22;;;21.81;51.95
53246;BME280;39569;51.090;-1.786;2023-04-28T01:46:10;100137.22;;;21.84;52.05
53246;BME280;39569;51.090;-1.786;2023-04-28T01:48:37;100129.94;;;20.08;56.34
53246;BME280;39569;51.090;-1.786;2023-04-28T01:51:04;100132.75;;;20.35;56.01
53246;BME280;39569;51.090;-1.786;2023-04-28T01:53:31;100129.06;;;21.16;53.82
53246;BME280;39569;51.090;-1.786;2023-04-28T01:55:57;100140.69;;;21.11;53.84
53246;BME280;39569;51.090;-1.786;2023-04-28T01:58:25;100145.50;;;20.34;55.32
53246;BME280;39569;51.090;-1.786;2023-04-28T02:00:52;100141.97;;;20.34;56.19
53246;BME280;39569;51.090;-1.786;2023-04-28T02:03:19;100142.38;;;20.69;55.09
53246;BME280;39569;51.090;-1.786;2023-04-28T02:05:45;100145.00;;;21.39;53.22
53246;BME280;39569;51.090;-1.786;2023-04-28T02:08:12;100150.16;;;21.09;54.12
53246;BME280;39569;51.090;-1.786;2023-04-28T02:10:39;100150.41;;;20.37;55.12
53246;BME280;39569;51.090;-1.786;2023-04-28T02:13:06;100148.28;;;19.85;57.15
53246;BME280;39569;51.090;-1.786;2023-04-28T02:15:38;100147.91;;;20.14;56.63
53246;BME280;39569;51.090;-1.786;2023-04-28T02:18:05;100147.81;;;20.47;55.15
53246;BME280;39569;51.090;-1.786;2023-04-28T02:20:32;100154.19;;;20.36;55.96
53246;BME280;39569;51.090;-1.786;2023-04-28T02:22:58;100155.00;;;20.37;56.17
53246;BME280;39569;51.090;-1.786;2023-04-28T02:25:25;100144.94;;;20.32;56.13
53246;BME280;39569;51.090;-1.786;2023-04-28T02:27:52;100155.59;;;20.01;56.67
53246;BME280;39569;51.090;-1.786;2023-04-28T02:30:19;100155.41;;;20.07;57.07
53246;BME280;39569;51.090;-1.786;2023-04-28T02:32:48;100163.66;;;19.63;58.05
53246;BME280;39569;51.090;-1.786;2023-04-28T02:35:15;100167.50;;;18.89;59.93
53246;BME280;39569;51.090;-1.786;2023-04-28T02:37:41;100170.09;;;20.28;56.28
53246;BME280;39569;51.090;-1.786;2023-04-28T02:40:09;100166.41;;;21.04;54.30
53246;BME280;39569;51.090;-1.786;2023-04-28T02:42:36;100164.59;;;21.14;53.70
53246;BME280;39569;51.090;-1.786;2023-04-28T02:45:03;100169.84;;;21.52;53.03
53246;BME280;39569;51.090;-1.786;2023-04-28T02:47:30;100160.53;;;21.43;52.98
53246;BME280;39569;51.090;-1.786;2023-04-28T02:49:58;100171.16;;;20.70;54.90
53246;BME280;39569;51.090;-1.786;2023-04-28T02:52:25;100158.63;;;21.44;52.68
53246;BME280;39569;51.090;-1.786;2023-04-28T02:54:51;100157.50;;;21.08;53.97
53246;BME280;39569;51.090;-1.786;2023-04-28T02:57:21;100166.84;;;21.49;53.11
53246;BME280;39569;51.090;-1.786;2023-04-28T02:59:48;100171.00;;;21.03;54.13
53246;BME280;39569;51.090;-1.786;2023-04-28T03:02:15;100171.88;;;21.35;53.19
53246;BME280;39569;51.090;-1.786;2023-04-28T03:04:42;100175.72;;;21.39;53.25
53246;BME280;39569;51.090;-1.786;2023-04-28T03:07:10;100175.91;;;21.65;52.50
53246;BME280;39569;51.090;-1.786;2023-04-28T03:09:37;100163.16;;;21.07;53.71
53246;BME280;39569;51.090;-1.786;2023-04-28T03:12:03;100166.59;;;21.82;52.37
53246;BME280;39569;51.090;-1.786;2023-04-28T03:14:30;100173.16;;;21.91;51.54
53246;BME280;39569;51.090;-1.786;2023-04-28T03:16:57;100170.25;;;22.03;51.56
53246;BME280;39569;51.090;-1.786;2023-04-28T03:19:24;100159.78;;;20.95;54.48
53246;BME280;39569;51.090;-1.786;2023-04-28T03:21:50;100156.88;;;21.60;52.25
53246;BME280;39569;51.090;-1.786;2023-04-28T03:24:18;100154.41;;;21.26;53.31
53246;BME280;39569;51.090;-1.786;2023-04-28T03:26:46;100161.59;;;21.74;51.83
53246;BME280;39569;51.090;-1.786;2023-04-28T03:29:12;100157.75;;;21.70;51.74
53246;BME280;39569;51.090;-1.786;2023-04-28T03:31:39;100162.50;;;21.85;50.77
53246;BME280;39569;51.090;-1.786;2023-04-28T03:34:06;100162.66;;;20.88;53.12
53246;BME280;39569;51.090;-1.786;2023-04-28T03:36:33;100164.22;;;21.64;51.47
53246;BME280;39569;51.090;-1.786;2023-04-28T03:39:00;100164.56;;;21.73;51.20
53246;BME280;39569;51.090;-1.786;2023-04-28T03:41:28;100163.88;;;21.87;50.99
53246;BME280;39569;51.090;-1.786;2023-04-28T03:43:55;100155.78;;;21.61;51.74
53246;BME280;39569;51.090;-1.786;2023-04-28T03:46:21;100172.31;;;21.54;51.56
53246;BME280;39569;51.090;-1.786;2023-04-28T03:48:48;100170.03;;;20.66;54.73
53246;BME280;39569;51.090;-1.786;2023-04-28T03:51:15;100172.56;;;20.51;55.39
53246;BME280;39569;51.090;-1.786;2023-04-28T03:53:42;100173.38;;;20.30;55.36
53246;BME280;39569;51.090;-1.786;2023-04-28T03:56:08;100168.56;;;21.60;52.59
53246;BME280;39569;51.090;-1.786;2023-04-28T03:58:36;100179.38;;;21.87;51.24
53246;BME280;39569;51.090;-1.786;2023-04-28T04:01:03;100181.31;;;21.01;53.31
53246;BME280;39569;51.090;-1.786;2023-04-28T04:03:30;100181.06;;;21.03;53.83
53246;BME280;39569;51.090;-1.786;2023-04-28T04:05:57;100177.72;;;21.49;52.60
53246;BME280;39569;51.090;-1.786;2023-04-28T04:08:24;100186.69;;;21.81;51.30
53246;BME280;39569;51.090;-1.786;2023-04-28T04:10:51;100186.81;;;22.01;50.96
53246;BME280;39569;51.090;-1.786;2023-04-28T04:13:19;100188.50;;;22.07;50.67
53246;BME280;39569;51.090;-1.786;2023-04-28T04:15:47;100189.81;;;22.00;50.72
53246;BME280;39569;51.090;-1.786;2023-04-28T04:18:14;100187.44;;;22.08;50.91
53246;BME280;39569;51.090;-1.786;2023-04-28T04:20:41;100198.47;;;21.33;52.25
53246;BME280;39569;51.090;-1.786;2023-04-28T04:23:07;100187.81;;;21.00;53.80
53246;BME280;39569;51.090;-1.786;2023-04-28T04:25:34;100187.16;;;21.15;53.03
53246;BME280;39569;51.090;-1.786;2023-04-28T04:28:01;100191.94;;;21.93;50.97
53246;BME280;39569;51.090;-1.786;2023-04-28T04:30:28;100187.91;;;22.00;50.58
53246;BME280;39569;51.090;-1.786;2023-04-28T04:32:56;100195.66;;;22.23;50.63
53246;BME280;39569;51.090;-1.786;2023-04-28T04:35:23;100196.16;;;22.10;50.67
53246;BME280;39569;51.090;-1.786;2023-04-28T04:37:49;100196.84;;;22.37;50.08
53246;BME280;39569;51.090;-1.786;2023-04-28T04:40:16;100192.91;;;21.45;51.81
53246;BME280;39569;51.090;-1.786;2023-04-28T04:42:43;100194.78;;;22.08;50.91
53246;BME280;39569;51.090;-1.786;2023-04-28T04:45:10;100196.78;;;21.54;51.61
53246;BME280;39569;51.090;-1.786;2023-04-28T04:47:36;100193.16;;;21.75;51.17
53246;BME280;39569;51.090;-1.786;2023-04-28T04:50:06;100195.34;;;22.15;50.57
53246;BME280;39569;51.090;-1.786;2023-04-28T04:52:32;100199.84;;;21.99;50.89
53246;BME280;39569;51.090;-1.786;2023-04-28T04:54:59;100198.06;;;22.15;50.61
53246;BME280;39569;51.090;-1.786;2023-04-28T04:57:26;100207.53;;;22.07;50.79
53246;BME280;39569;51.090;-1.786;2023-04-28T04:59:52;100206.81;;;22.22;50.18
53246;BME280;39569;51.090;-1.786;2023-04-28T05:02:19;100212.09;;;21.97;50.56
53246;BME280;39569;51.090;-1.786;2023-04-28T05:04:46;100214.56;;;21.72;51.43
53246;BME280;39569;51.090;-1.786;2023-04-28T05:07:14;100212.47;;;22.10;50.44
53246;BME280;39569;51.090;-1.786;2023-04-28T05:09:41;100219.00;;;22.14;50.49
53246;BME280;39569;51.090;-1.786;2023-04-28T05:12:07;100223.41;;;22.20;50.43
53246;BME280;39569;51.090;-1.786;2023-04-28T05:14:34;100220.00;;;21.72;51.43
53246;BME280;39569;51.090;-1.786;2023-04-28T05:17:01;100215.94;;;21.69;50.99
53246;BME280;39569;51.090;-1.786;2023-04-28T05:19:28;100230.88;;;21.13;52.24
53246;BME280;39569;51.090;-1.786;2023-04-28T05:21:55;100233.97;;;21.48;52.32
53246;BME280;39569;51.090;-1.786;2023-04-28T05:24:23;100232.06;;;21.22;52.92
53246;BME280;39569;51.090;-1.786;2023-04-28T05:26:50;100233.25;;;21.05;53.09
53246;BME280;39569;51.090;-1.786;2023-04-28T05:29:16;100242.19;;;20.84;54.05
53246;BME280;39569;51.090;-1.786;2023-04-28T05:31:43;100243.44;;;20.54;54.70
53246;BME280;39569;51.090;-1.786;2023-04-28T05:34:10;100250.31;;;20.07;55.61
53246;BME280;39569;51.090;-1.786;2023-04-28T05:36:37;100250.56;;;19.89;56.25
53246;BME280;39569;51.090;-1.786;2023-04-28T05:39:03;100256.81;;;19.73;57.17
53246;BME280;39569;51.090;-1.786;2023-04-28T05:41:34;100253.78;;;20.79;54.70
53246;BME280;39569;51.090;-1.786;2023-04-28T05:44:01;100259.34;;;20.68;54.91
53246;BME280;39569;51.090;-1.786;2023-04-28T05:46:28;100246.22;;;20.21;56.01
53246;BME280;39569;51.090;-1.786;2023-04-28T05:48:54;100258.53;;;20.89;54.22
53246;BME280;39569;51.090;-1.786;2023-04-28T05:51:21;100265.09;;;21.14;53.43
53246;BME280;39569;51.090;-1.786;2023-04-28T05:53:48;100266.16;;;21.08;53.87
53246;BME280;39569;51.090;-1.786;2023-04-28T05:56:15;100271.81;;;21.07;54.01
53246;BME280;39569;51.090;-1.786;2023-04-28T05:58:44;100272.78;;;20.19;55.83
53246;BME280;39569;51.090;-1.786;2023-04-28T06:01:11;100271.53;;;20.27;56.80
53246;BME280;39569;51.090;-1.786;2023-04-28T06:03:38;100277.00;;;20.48;56.04
53246;BME280;39569;51.090;-1.786;2023-04-28T06:06:06;100273.50;;;21.13;54.40
53246;BME280;39569;51.090;-1.786;2023-04-28T06:08:33;100284.06;;;20.88;54.68
53246;BME280;39569;51.090;-1.786;2023-04-28T06:10:59;100283.94;;;20.61;55.19
53246;BME280;39569;51.090;-1.786;2023-04-28T06:13:26;100284.31;;;19.37;58.59
53246;BME280;39569;51.090;-1.786;2023-04-28T06:15:55;100280.50;;;20.66;55.97
53246;BME280;39569;51.090;-1.786;2023-04-28T06:18:22;100288.66;;;21.30;53.86
53246;BME280;39569;51.090;-1.786;2023-04-28T06:20:49;100287.28;;;19.97;57.19
53246;BME280;39569;51.090;-1.786;2023-04-28T06:23:16;100293.03;;;20.00;56.96
53246;BME280;39569;51.090;-1.786;2023-04-28T06:25:42;100291.78;;;21.17;54.48
53246;BME280;39569;51.090;-1.786;2023-04-28T06:28:09;100300.06;;;21.54;53.42
53246;BME280;39569;51.090;-1.786;2023-04-28T06:30:37;100295.44;;;20.68;55.22
53246;BME280;39569;51.090;-1.786;2023-04-28T06:33:05;100306.75;;;20.60;55.79
53246;BME280;39569;51.090;-1.786;2023-04-28T06:35:32;100298.75;;;21.35;53.61
53246;BME280;39569;51.090;-1.786;2023-04-28T06:38:00;100308.06;;;21.17;54.01
53246;BME280;39569;51.090;-1.786;2023-04-28T06:40:27;100312.91;;;20.06;57.21
53246;BME280;39569;51.090;-1.786;2023-04-28T06:42:54;100313.03;;;20.27;56.51
53246;BME280;39569;51.090;-1.786;2023-04-28T06:45:21;100318.88;;;20.74;55.32
53246;BME280;39569;51.090;-1.786;2023-04-28T06:47:48;100322.19;;;20.60;56.10
53246;BME280;39569;51.090;-1.786;2023-04-28T06:50:16;100321.84;;;21.32;53.88
53246;BME280;39569;51.090;-1.786;2023-04-28T06:52:43;100324.66;;;21.42;53.62
53246;BME280;39569;51.090;-1.786;2023-04-28T06:55:14;100321.75;;;22.02;52.25
53246;BME280;39569;51.090;-1.786;2023-04-28T06:57:41;100332.06;;;21.74;52.46
53246;BME280;39569;51.090;-1.786;2023-04-28T07:00:09;100340.81;;;20.34;55.70
53246;BME280;39569;51.090;-1.786;2023-04-28T07:02:35;100327.69;;;21.73;52.53
53246;BME280;39569;51.090;-1.786;2023-04-28T07:05:02;100328.69;;;21.88;51.81
53246;BME280;39569;51.090;-1.786;2023-04-28T07:07:31;100341.66;;;22.08;51.45
53246;BME280;39569;51.090;-1.786;2023-04-28T07:09:58;100336.78;;;21.35;52.91
53246;BME280;39569;51.090;-1.786;2023-04-28T07:12:26;100344.97;;;21.13;53.80
53246;BME280;39569;51.090;-1.786;2023-04-28T07:14:53;100347.25;;;20.83;53.34
53246;BME280;39569;51.090;-1.786;2023-04-28T07:17:20;100349.44;;;21.24;52.64
53246;BME280;39569;51.090;-1.786;2023-04-28T07:19:46;100352.41;;;21.01;52.80
53246;BME280;39569;51.090;-1.786;2023-04-28T07:22:15;100353.13;;;21.83;51.47
53246;BME280;39569;51.090;-1.786;2023-04-28T07:24:43;100359.09;;;20.77;53.39
53246;BME280;39569;51.090;-1.786;2023-04-28T07:27:10;100363.53;;;20.83;52.88
53246;BME280;39569;51.090;-1.786;2023-04-28T07:29:37;100368.09;;;21.37;51.99
53246;BME280;39569;51.090;-1.786;2023-04-28T07:32:04;100365.56;;;21.52;51.12
53246;BME280;39569;51.090;-1.786;2023-04-28T07:34:33;100360.50;;;20.80;52.91
53246;BME280;39569;51.090;-1.786;2023-04-28T07:37:00;100365.56;;;20.54;53.15
53246;BME280;39569;51.090;-1.786;2023-04-28T07:39:27;100364.41;;;21.48;51.80
53246;BME280;39569;51.090;-1.786;2023-04-28T07:41:56;100368.19;;;21.69;50.90
53246;BME280;39569;51.090;-1.786;2023-04-28T07:44:23;100363.72;;;22.11;49.79
53246;BME280;39569;51.090;-1.786;2023-04-28T07:46:50;100372.00;;;21.95;50.49
53246;BME280;39569;51.090;-1.786;2023-04-28T07:49:17;100373.91;;;22.26;49.68
53246;BME280;39569;51.090;-1.786;2023-04-28T07:51:43;100372.41;;;22.08;50.13
53246;BME280;39569;51.090;-1.786;2023-04-28T07:54:10;100382.22;;;22.73;49.07
53246;BME280;39569;51.090;-1.786;2023-04-28T07:56:37;100386.63;;;22.47;49.53
53246;BME280;39569;51.090;-1.786;2023-04-28T07:59:05;100392.09;;;22.20;50.07
53246;BME280;39569;51.090;-1.786;2023-04-28T08:01:32;100389.81;;;21.81;51.06
53246;BME280;39569;51.090;-1.786;2023-04-28T08:03:58;100386.97;;;22.24;50.19
53246;BME280;39569;51.090;-1.786;2023-04-28T08:06:25;100401.69;;;21.75;51.16
53246;BME280;39569;51.090;-1.786;2023-04-28T08:08:53;100407.47;;;21.57;51.72
53246;BME280;39569;51.090;-1.786;2023-04-28T08:11:20;100406.50;;;21.89;51.29
53246;BME280;39569;51.090;-1.786;2023-04-28T08:13:47;100415.53;;;21.95;51.09
53246;BME280;39569;51.090;-1.786;2023-04-28T08:16:15;100418.56;;;21.12;53.04
53246;BME280;39569;51.090;-1.786;2023-04-28T08:18:42;100423.84;;;21.40;52.50
53246;BME280;39569;51.090;-1.786;2023-04-28T08:21:10;100423.91;;;20.74;53.24
53246;BME280;39569;51.090;-1.786;2023-04-28T08:23:36;100428.44;;;21.39;51.98
53246;BME280;39569;51.090;-1.786;2023-04-28T08:26:03;100431.53;;;21.48;51.47
53246;BME280;39569;51.090;-1.786;2023-04-28T08:28:30;100436.59;;;21.61;51.67
53246;BME280;39569;51.090;-1.786;2023-04-28T08:30:58;100440.34;;;22.03;50.43
53246;BME280;39569;51.090;-1.786;2023-04-28T08:33:26;100436.31;;;22.32;49.85
53246;BME280;39569;51.090;-1.786;2023-04-28T08:35:54;100450.16;;;22.31;49.53
53246;BME280;39569;51.090;-1.786;2023-04-28T08:38:21;100445.75;;;22.25;50.14
53246;BME280;39569;51.090;-1.786;2023-04-28T08:40:49;100453.06;;;21.33;51.63
53246;BME280;39569;51.090;-1.786;2023-04-28T08:43:16;100443.69;;;21.84;51.20
53246;BME280;39569;51.090;-1.786;2023-04-28T08:45:45;100451.31;;;21.65;50.81
53246;BME280;39569;51.090;-1.786;2023-04-28T08:48:17;100446.03;;;22.55;49.49
53246;BME280;39569;51.090;-1.786;2023-04-28T08:50:50;100437.94;;;22.60;49.00
53246;BME280;39569;51.090;-1.786;2023-04-28T08:53:22;100447.53;;;22.68;49.11
53246;BME280;39569;51.090;-1.786;2023-04-28T08:55:51;100446.94;;;22.97;47.48
53246;BME280;39569;51.090;-1.786;2023-04-28T08:58:21;100447.72;;;22.56;47.88
53246;BME280;39569;51.090;-1.786;2023-04-28T09:00:48;100447.84;;;22.18;49.40
53246;BME280;39569;51.090;-1.786;2023-04-28T09:03:15;100461.44;;;23.50;46.64
53246;BME280;39569;51.090;-1.786;2023-04-28T09:05:42;100454.56;;;22.37;47.82
53246;BME280;39569;51.090;-1.786;2023-04-28T09:08:10;100459.72;;;23.33;46.77
53246;BME280;39569;51.090;-1.786;2023-04-28T09:10:37;100459.78;;;23.44;46.25
53246;BME280;39569;51.090;-1.786;2023-04-28T09:13:04;100466.59;;;23.46;46.96
53246;BME280;39569;51.090;-1.786;2023-04-28T09:15:33;100474.59;;;23.16;47.33
53246;BME280;39569;51.090;-1.786;2023-04-28T09:18:00;100485.88;;;23.34;46.21
53246;BME280;39569;51.090;-1.786;2023-04-28T09:20:29;100472.84;;;23.05;46.82
53246;BME280;39569;51.090;-1.786;2023-04-28T09:23:13;100482.47;;;23.59;46.38
53246;BME280;39569;51.090;-1.786;2023-04-28T09:25:40;100482.41;;;23.44;45.45
53246;BME280;39569;51.090;-1.786;2023-04-28T09:28:19;100493.59;;;23.11;46.35
53246;BME280;39569;51.090;-1.786;2023-04-28T09:30:47;100496.97;;;23.23;46.26
53246;BME280;39569;51.090;-1.786;2023-04-28T09:33:13;100488.97;;;23.06;46.85
53246;BME280;39569;51.090;-1.786;2023-04-28T09:35:42;100488.78;;;23.70;45.63
53246;BME280;39569;51.090;-1.786;2023-04-28T09:38:09;100504.03;;;24.17;45.02
53246;BME280;39569;51.090;-1.786;2023-04-28T09:40:53;100508.97;;;24.35;44.40
53246;BME280;39569;51.090;-1.786;2023-04-28T09:43:28;100496.63;;;25.69;42.17
53246;BME280;39569;51.090;-1.786;2023-04-28T09:45:55;100494.84;;;26.52;40.35
53246;BME280;39569;51.090;-1.786;2023-04-28T09:48:30;100500.78;;;26.25;40.87
53246;BME280;39569;51.090;-1.786;2023-04-28T09:50:57;100508.94;;;27.65;41.38
53246;BME280;39569;51.090;-1.786;2023-04-28T09:53:25;100504.44;;;26.54;40.45
53246;BME280;39569;51.090;-1.786;2023-04-28T09:55:54;100502.16;;;26.71;39.82
53246;BME280;39569;51.090;-1.786;2023-04-28T09:58:23;100510.75;;;26.01;40.23
53246;BME280;39569;51.090;-1.786;2023-04-28T10:00:52;100510.94;;;25.41;42.65
53246;BME280;39569;51.090;-1.786;2023-04-28T10:03:21;100523.50;;;24.56;43.50
53246;BME280;39569;51.090;-1.786;2023-04-28T10:05:49;100534.63;;;24.24;44.60
53246;BME280;39569;51.090;-1.786;2023-04-28T10:08:18;100520.19;;;24.34;44.07
53246;BME280;39569;51.090;-1.786;2023-04-28T10:10:47;100529.13;;;23.63;45.55
53246;BME280;39569;51.090;-1.786;2023-04-28T10:13:17;100533.44;;;24.05;44.43
53246;BME280;39569;51.090;-1.786;2023-04-28T10:15:45;100534.84;;;24.13;44.47
53246;BME280;39569;51.090;-1.786;2023-04-28T10:18:12;100537.28;;;24.09;44.38
53246;BME280;39569;51.090;-1.786;2023-04-28T10:20:41;100538.00;;;25.27;42.90
53246;BME280;39569;51.090;-1.786;2023-04-28T10:23:34;100535.75;;;25.74;41.89
53246;BME280;39569;51.090;-1.786;2023-04-28T10:26:09;100541.03;;;25.05;42.96
53246;BME280;39569;51.090;-1.786;2023-04-28T10:28:43;100543.44;;;25.57;42.63
53246;BME280;39569;51.090;-1.786;2023-04-28T10:31:11;100544.28;;;25.38;41.82
53246;BME280;39569;51.090;-1.786;2023-04-28T10:33:39;100547.56;;;25.50;42.51
53246;BME280;39569;51.090;-1.786;2023-04-28T10:36:06;100556.47;;;25.90;40.61
53246;BME280;39569;51.090;-1.786;2023-04-28T10:38:34;100553.69;;;26.10;41.20
53246;BME280;39569;51.090;-1.786;2023-04-28T10:41:01;100555.91;;;25.98;40.18
53246;BME280;39569;51.090;-1.786;2023-04-28T10:43:33;100562.75;;;25.96;41.29
53246;BME280;39569;51.090;-1.786;2023-04-28T10:46:04;100556.28;;;27.23;38.87
53246;BME280;39569;51.090;-1.786;2023-04-28T10:49:04;100567.78;;;26.91;39.17
53246;BME280;39569;51.090;-1.786;2023-04-28T10:51:32;100555.41;;;25.81;40.87
53246;BME280;39569;51.090;-1.786;2023-04-28T10:54:15;100569.72;;;25.13;42.25
53246;BME280;39569;51.090;-1.786;2023-04-28T10:57:18;100570.06;;;26.25;40.40
53246;BME280;39569;51.090;-1.786;2023-04-28T10:59:45;100574.34;;;25.32;41.10
53246;BME280;39569;51.090;-1.786;2023-04-28T11:02:38;100570.84;;;25.47;41.34
53246;BME280;39569;51.090;-1.786;2023-04-28T11:05:16;100574.00;;;26.53;40.28
53246;BME280;39569;51.090;-1.786;2023-04-28T11:11:14;100572.38;;;25.93;40.48
53246;BME280;39569;51.090;-1.786;2023-04-28T11:13:41;100578.00;;;26.76;39.21
53246;BME280;39569;51.090;-1.786;2023-04-28T11:16:13;100580.44;;;26.82;39.14
53246;BME280;39569;51.090;-1.786;2023-04-28T11:19:02;100580.56;;;26.57;39.37
53246;BME280;39569;51.090;-1.786;2023-04-28T11:21:31;100582.50;;;25.88;41.08
53246;BME280;39569;51.090;-1.786;2023-04-28T11:23:58;100583.56;;;26.61;40.35
53246;BME280;39569;51.090;-1.786;2023-04-28T11:26:26;100578.25;;;26.84;39.42
53246;BME280;39569;51.090;-1.786;2023-04-28T11:28:55;100587.69;;;27.64;38.68
53246;BME280;39569;51.090;-1.786;2023-04-28T11:31:24;100591.03;;;29.44;35.12
53246;BME280;39569;51.090;-1.786;2023-04-28T11:33:54;100578.31;;;31.06;34.48
53246;BME280;39569;51.090;-1.786;2023-04-28T11:36:28;100577.22;;;27.71;36.37
53246;BME280;39569;51.090;-1.786;2023-04-28T11:38:56;100584.16;;;28.58;36.88
53246;BME280;39569;51.090;-1.786;2023-04-28T11:41:23;100571.28;;;30.64;32.25
53246;BME280;39569;51.090;-1.786;2023-04-28T11:43:51;100573.28;;;29.36;34.00
53246;BME280;39569;51.090;-1.786;2023-04-28T11:46:19;100570.00;;;31.28;32.20
53246;BME280;39569;51.090;-1.786;2023-04-28T11:48:48;100574.53;;;31.02;31.77
53246;BME280;39569;51.090;-1.786;2023-04-28T11:51:34;100579.03;;;30.98;32.98
53246;BME280;39569;51.090;-1.786;2023-04-28T11:54:03;100566.63;;;33.97;27.88
53246;BME280;39569;51.090;-1.786;2023-04-28T11:56:36;100573.28;;;35.16;28.08
53246;BME280;39569;51.090;-1.786;2023-04-28T11:59:05;100574.69;;;35.55;27.17
53246;BME280;39569;51.090;-1.786;2023-04-28T12:01:33;100584.41;;;32.81;29.04
53246;BME280;39569;51.090;-1.786;2023-04-28T12:04:02;100586.56;;;30.83;30.67
53246;BME280;39569;51.090;-1.786;2023-04-28T12:06:29;100569.28;;;34.43;27.60
53246;BME280;39569;51.090;-1.786;2023-04-28T12:08:58;100580.16;;;34.57;24.93
53246;BME280;39569;51.090;-1.786;2023-04-28T12:11:29;100582.94;;;32.58;28.29
53246;BME280;39569;51.090;-1.786;2023-04-28T12:14:03;100584.09;;;32.83;27.16
53246;BME280;39569;51.090;-1.786;2023-04-28T12:16:38;100591.31;;;34.48;27.60
53246;BME280;39569;51.090;-1.786;2023-04-28T12:19:08;100597.56;;;33.53;28.05
53246;BME280;39569;51.090;-1.786;2023-04-28T12:21:36;100592.97;;;34.41;27.26
53246;BME280;39569;51.090;-1.786;2023-04-28T12:24:15;100603.63;;;33.93;27.97
53246;BME280;39569;51.090;-1.786;2023-04-28T12:26:42;100608.59;;;31.94;29.91
53246;BME280;39569;51.090;-1.786;2023-04-28T12:29:36;100605.28;;;35.02;26.50
53246;BME280;39569;51.090;-1.786;2023-04-28T12:32:05;100608.03;;;30.73;29.76
53246;BME280;39569;51.090;-1.786;2023-04-28T12:34:31;100612.66;;;32.36;28.81
53246;BME280;39569;51.090;-1.786;2023-04-28T12:36:59;100628.72;;;29.62;32.63
53246;BME280;39569;51.090;-1.786;2023-04-28T12:39:28;100631.09;;;28.38;34.46
53246;BME280;39569;51.090;-1.786;2023-04-28T12:41:54;100638.16;;;28.68;34.72
53246;BME280;39569;51.090;-1.786;2023-04-28T12:44:23;100630.91;;;33.82;28.22
53246;BME280;39569;51.090;-1.786;2023-04-28T12:46:50;100630.50;;;32.21;28.84
53246;BME280;39569;51.090;-1.786;2023-04-28T12:49:17;100640.03;;;29.09;32.71